Time;durP1;ratioP1;P1;durP2;ratioP2;P2;SDS_P1;SDS_P2;PMS_P1;PMS_P2;Temp;Humidity;BMP_temperature;BMP_pressure;BME280_temperature;BME280_humidity;BME280_pressure;Samples;Min_cycle;Max_cycle;Signal;HPM_P1;HPM_P2
2023/06/06 00:00:46;;;;;;;8.67;3.90;;;17.50;36.50;;;;;;5118641;28;20448;-49
2023/06/06 00:03:12;;;;;;;4.43;4.03;;;17.50;45.80;;;;;;5098180;28;20344;-47
2023/06/06 00:05:38;;;;;;;4.30;3.70;;;17.50;3.30;;;;;;5118836;28;20425;-47
2023/06/06 00:08:05;;;;;;;5.20;4.00;;;17.50;27.90;;;;;;5119219;28;20418;-48
2023/06/06 00:10:31;;;;;;;4.13;3.40;;;17.40;53.30;;;;;;5118732;28;20225;-49
2023/06/06 00:12:56;;;;;;;4.10;3.70;;;17.50;27.20;;;;;;5118649;28;20434;-47
2023/06/06 00:15:22;;;;;;;3.90;3.17;;;17.40;3.60;;;;;;5118183;28;20192;-46
2023/06/06 00:17:53;;;;;;;3.70;3.10;;;17.40;9.00;;;;;;5119680;28;20239;-49
2023/06/06 00:20:19;;;;;;;6.80;3.43;;;17.50;1.00;;;;;;5119685;28;20191;-46
2023/06/06 00:22:44;;;;;;;3.27;2.90;;;17.40;1.00;;;;;;5118941;28;20500;-46
2023/06/06 00:25:10;;;;;;;4.50;4.10;;;17.30;1.00;;;;;;5118476;28;20707;-47
2023/06/06 00:27:39;;;;;;;3.63;3.33;;;17.30;1.00;;;;;;5119623;28;20192;-51
2023/06/06 00:30:05;;;;;;;3.80;3.50;;;17.30;1.00;;;;;;5118884;28;20212;-47
2023/06/06 00:32:31;;;;;;;4.00;3.00;;;17.30;1.00;;;;;;5117061;28;20410;-47
2023/06/06 00:34:57;;;;;;;4.13;3.73;;;17.20;1.00;;;;;;5117552;28;20545;-47
2023/06/06 00:37:22;;;;;;;3.60;3.30;;;17.20;1.00;;;;;;5100754;28;20358;-47
2023/06/06 00:39:50;;;;;;;3.30;3.00;;;17.20;1.00;;;;;;5116891;28;20593;-51
2023/06/06 00:42:15;;;;;;;3.90;3.60;;;17.20;7.70;;;;;;5117895;28;20333;-46
2023/06/06 00:44:41;;;;;;;4.00;3.60;;;17.10;1.00;;;;;;5117546;28;20596;-47
2023/06/06 00:47:07;;;;;;;3.27;2.97;;;17.10;1.00;;;;;;5117999;28;20414;-49
2023/06/06 00:49:35;;;;;;;3.57;3.27;;;17.10;1.00;;;;;;5117972;28;20601;-46
2023/06/06 00:52:01;;;;;;;4.83;4.10;;;17.10;1.00;;;;;;5100724;28;20776;-46
2023/06/06 00:54:27;;;;;;;3.80;3.37;;;17.00;1.00;;;;;;5118299;28;20620;-49
2023/06/06 00:56:53;;;;;;;4.73;3.60;;;17.00;1.00;;;;;;5118924;28;20186;-48
2023/06/06 00:59:20;;;;;;;3.17;2.73;;;16.90;1.00;;;;;;5100420;28;20428;-51
2023/06/06 01:01:47;;;;;;;4.10;3.70;;;16.90;1.00;;;;;;5084018;28;20520;-49
2023/06/06 01:04:15;;;;;;;3.90;3.60;;;16.90;1.00;;;;;;5118632;28;20437;-47
2023/06/06 01:06:41;;;;;;;4.00;3.60;;;16.90;1.00;;;;;;5118833;28;20449;-47
2023/06/06 01:09:08;;;;;;;3.87;3.47;;;16.80;1.00;;;;;;5118249;28;20904;-47
2023/06/06 01:12:02;;;;;;;4.07;3.67;;;16.80;1.00;;;;;;5118594;28;20478;-48
2023/06/06 01:15:03;;;;;;;3.57;3.27;;;16.80;1.00;;;;;;5118646;28;20499;-47
2023/06/06 01:17:29;;;;;;;3.40;3.10;;;16.80;1.00;;;;;;5053899;28;20498;-47
2023/06/06 01:19:56;;;;;;;3.27;2.97;;;16.80;1.00;;;;;;5100350;28;20398;-46
2023/06/06 01:22:22;;;;;;;3.33;3.03;;;16.80;1.00;;;;;;5118241;28;20431;-46
2023/06/06 01:24:52;;;;;;;3.47;3.03;;;16.80;1.00;;;;;;5118146;28;20405;-50
2023/06/06 01:27:18;;;;;;;3.67;3.37;;;16.80;1.00;;;;;;5116987;28;20428;-48
2023/06/06 01:29:43;;;;;;;4.90;3.40;;;16.90;1.00;;;;;;5118057;28;20516;-47
2023/06/06 01:32:31;;;;;;;3.77;3.10;;;16.80;1.00;;;;;;5118566;28;20410;-48
2023/06/06 01:35:06;;;;;;;3.60;3.30;;;16.80;1.00;;;;;;5118573;28;20564;-48
2023/06/06 01:37:45;;;;;;;3.07;2.80;;;16.80;1.00;;;;;;5082885;28;20445;-45
2023/06/06 01:40:13;;;;;;;3.87;3.47;;;16.70;1.00;;;;;;5118339;28;20587;-46
2023/06/06 01:42:46;;;;;;;6.17;3.50;;;16.80;1.00;;;;;;5099897;28;20560;-47
2023/06/06 01:45:14;;;;;;;4.20;3.80;;;16.80;1.00;;;;;;5117832;28;20430;-46
2023/06/06 01:47:41;;;;;;;3.70;3.00;;;16.80;1.00;;;;;;5099871;28;20402;-46
2023/06/06 01:50:07;;;;;;;3.53;3.23;;;16.80;1.00;;;;;;5116615;28;20457;-49
2023/06/06 01:52:37;;;;;;;3.20;2.90;;;16.90;1.00;;;;;;5116639;28;20441;-48
2023/06/06 01:55:04;;;;;;;2.70;2.50;;;16.80;1.00;;;;;;5117626;28;20437;-46
2023/06/06 01:57:29;;;;;;;5.03;2.97;;;16.80;1.00;;;;;;5117118;28;20433;-49
2023/06/06 01:59:55;;;;;;;3.03;2.83;;;16.90;1.00;;;;;;5117903;28;20432;-48
2023/06/06 02:02:21;;;;;;;3.97;3.47;;;16.90;1.00;;;;;;5115561;28;20184;-47
2023/06/06 02:04:48;;;;;;;3.67;3.37;;;16.80;1.00;;;;;;5116482;28;20188;-48
2023/06/06 02:07:15;;;;;;;4.43;3.50;;;16.80;1.00;;;;;;5117311;28;20263;-47
2023/06/06 02:09:42;;;;;;;3.67;3.37;;;16.80;1.00;;;;;;5116877;28;20464;-47
2023/06/06 02:12:08;;;;;;;6.77;3.20;;;16.80;1.00;;;;;;5116880;28;20436;-50
2023/06/06 02:14:34;;;;;;;4.00;3.30;;;16.80;1.00;;;;;;5117134;28;20513;-46
2023/06/06 02:17:00;;;;;;;3.37;2.90;;;16.80;1.00;;;;;;5117130;28;20501;-47
2023/06/06 02:19:26;;;;;;;3.50;3.20;;;16.80;1.00;;;;;;5116662;28;20176;-48
2023/06/06 02:21:53;;;;;;;3.17;2.97;;;16.80;1.00;;;;;;5115629;28;20430;-49
2023/06/06 02:24:19;;;;;;;3.50;3.20;;;16.80;1.00;;;;;;5116335;28;20449;-48
2023/06/06 02:26:45;;;;;;;4.00;3.60;;;16.80;1.00;;;;;;5115969;28;20483;-50
2023/06/06 02:29:10;;;;;;;3.43;3.10;;;16.70;1.00;;;;;;5116467;28;20160;-46
2023/06/06 02:31:36;;;;;;;4.30;3.17;;;16.80;1.00;;;;;;5116481;28;20453;-47
2023/06/06 02:34:02;;;;;;;3.33;3.03;;;16.80;1.00;;;;;;5116814;28;20783;-47
2023/06/06 02:36:30;;;;;;;3.90;2.80;;;16.80;1.00;;;;;;5116726;28;20203;-47
2023/06/06 02:38:57;;;;;;;3.00;2.73;;;16.90;1.00;;;;;;5117067;28;20832;-47
2023/06/06 02:41:23;;;;;;;3.50;3.20;;;16.90;1.00;;;;;;5116707;28;20441;-52
2023/06/06 02:43:48;;;;;;;3.93;3.50;;;16.90;1.00;;;;;;5116910;28;20477;-47
2023/06/06 02:46:14;;;;;;;3.60;3.30;;;16.90;1.00;;;;;;5115125;28;20448;-50
2023/06/06 02:48:40;;;;;;;3.80;3.23;;;16.90;1.00;;;;;;5096467;28;20203;-47
2023/06/06 02:51:07;;;;;;;3.40;2.60;;;16.90;1.00;;;;;;5115575;28;20648;-47
2023/06/06 02:53:32;;;;;;;3.40;3.00;;;16.80;1.00;;;;;;5115713;28;20700;-49
2023/06/06 02:55:58;;;;;;;3.67;3.37;;;16.90;1.00;;;;;;5115515;28;20421;-49
2023/06/06 02:58:30;;;;;;;3.50;3.20;;;16.90;1.00;;;;;;5116051;28;20209;-48
2023/06/06 03:00:56;;;;;;;3.83;3.47;;;16.80;1.00;;;;;;5116974;28;20202;-46
2023/06/06 03:03:23;;;;;;;4.27;3.40;;;16.70;1.00;;;;;;5116129;28;20433;-47
2023/06/06 03:05:51;;;;;;;3.77;3.40;;;16.70;1.00;;;;;;5114686;28;20819;-47
2023/06/06 03:08:18;;;;;;;3.30;3.00;;;16.60;1.00;;;;;;5114871;28;20553;-48
2023/06/06 03:10:47;;;;;;;3.20;2.90;;;16.60;1.00;;;;;;5114191;28;20476;-47
2023/06/06 03:13:14;;;;;;;3.10;2.90;;;16.60;1.00;;;;;;5113743;28;20528;-48
2023/06/06 03:15:46;;;;;;;3.83;3.53;;;16.60;1.00;;;;;;5114737;28;20429;-47
2023/06/06 03:18:20;;;;;;;3.73;3.30;;;16.60;1.00;;;;;;5114620;28;20478;-47
2023/06/06 03:20:53;;;;;;;3.20;2.90;;;16.60;1.00;;;;;;5097723;28;20465;-47
2023/06/06 03:23:21;;;;;;;4.10;3.70;;;16.60;1.00;;;;;;5116274;28;20748;-46
2023/06/06 03:25:49;;;;;;;3.80;3.40;;;16.50;1.00;;;;;;5116020;28;20835;-48
2023/06/06 03:28:17;;;;;;;4.70;3.50;;;16.50;1.00;;;;;;5115686;28;20493;-49
2023/06/06 03:30:43;;;;;;;3.80;3.40;;;16.50;1.00;;;;;;5114984;28;20550;-47
2023/06/06 03:33:09;;;;;;;4.23;3.70;;;16.50;1.00;;;;;;5116952;28;20483;-49
2023/06/06 03:35:35;;;;;;;3.80;3.50;;;16.50;1.00;;;;;;5119428;28;20212;-49
2023/06/06 03:38:04;;;;;;;4.10;3.50;;;16.40;1.00;;;;;;5118931;28;20417;-50
2023/06/06 03:40:30;;;;;;;4.27;3.53;;;16.40;1.00;;;;;;5118984;28;20492;-48
2023/06/06 03:42:56;;;;;;;3.90;3.50;;;16.40;1.00;;;;;;5118508;28;20497;-48
2023/06/06 03:45:22;;;;;;;3.37;3.07;;;16.40;1.00;;;;;;5100587;28;20433;-48
2023/06/06 03:47:51;;;;;;;3.37;3.07;;;16.40;1.00;;;;;;5118395;28;20432;-47
2023/06/06 03:50:17;;;;;;;3.67;3.37;;;16.40;1.00;;;;;;5117869;27;20461;-47
2023/06/06 03:52:44;;;;;;;3.70;3.40;;;16.40;1.00;;;;;;5119175;28;20865;-47
2023/06/06 03:55:10;;;;;;;4.20;3.53;;;16.40;1.00;;;;;;5118334;28;20598;-48
2023/06/06 03:57:39;;;;;;;5.77;4.70;;;16.40;1.00;;;;;;5118988;28;20906;-47
2023/06/06 04:00:10;;;;;;;4.97;4.10;;;16.40;1.00;;;;;;5119476;28;20429;-46
2023/06/06 04:02:37;;;;;;;3.97;3.13;;;16.40;1.00;;;;;;5118674;28;20451;-48
2023/06/06 04:05:04;;;;;;;4.37;3.97;;;16.30;1.00;;;;;;5118691;28;20434;-47
2023/06/06 04:07:31;;;;;;;3.63;3.33;;;16.30;1.00;;;;;;5119431;28;20849;-46
2023/06/06 04:09:57;;;;;;;3.93;3.53;;;16.30;1.00;;;;;;5118305;28;20484;-48
2023/06/06 04:12:22;;;;;;;3.93;3.50;;;16.30;1.00;;;;;;5119068;28;20663;-48
2023/06/06 04:14:48;;;;;;;4.13;3.50;;;16.40;1.00;;;;;;5119085;28;20188;-46
2023/06/06 04:17:13;;;;;;;4.53;4.13;;;16.40;1.00;;;;;;5117024;28;20253;-46
2023/06/06 04:19:39;;;;;;;5.43;4.10;;;16.40;1.00;;;;;;5117054;28;20198;-48
2023/06/06 04:22:05;;;;;;;4.20;3.57;;;16.30;1.00;;;;;;5117499;28;20260;-49
2023/06/06 04:24:31;;;;;;;3.73;3.43;;;16.20;1.00;;;;;;5116724;28;20276;-45
2023/06/06 04:27:03;;;;;;;3.40;3.10;;;16.10;1.00;;;;;;5113595;28;20212;-47
2023/06/06 04:29:32;;;;;;;4.17;3.77;;;16.20;1.00;;;;;;5113960;28;20645;-47
2023/06/06 04:31:59;;;;;;;4.80;4.10;;;16.20;1.00;;;;;;5116412;28;20423;-47
2023/06/06 04:34:28;;;;;;;4.07;3.70;;;16.30;1.00;;;;;;5117185;28;20456;-47
2023/06/06 04:36:56;;;;;;;3.50;3.20;;;16.40;1.00;;;;;;5116419;28;20449;-47
2023/06/06 04:39:24;;;;;;;3.70;3.40;;;16.50;1.00;;;;;;5117764;28;20434;-49
2023/06/06 04:41:50;;;;;;;5.13;3.73;;;16.50;1.00;;;;;;5116950;28;20497;-49
2023/06/06 04:44:17;;;;;;;3.77;3.40;;;16.60;1.00;;;;;;5100643;28;20425;-46
2023/06/06 04:46:43;;;;;;;5.33;4.33;;;16.70;1.00;;;;;;5118022;28;20436;-46
2023/06/06 04:49:09;;;;;;;4.67;4.27;;;16.80;1.00;;;;;;5118470;28;20527;-45
2023/06/06 04:51:37;;;;;;;5.03;4.63;;;16.80;1.00;;;;;;5117768;28;20541;-48
2023/06/06 04:54:08;;;;;;;4.30;3.83;;;16.90;1.00;;;;;;5118399;28;20421;-49
2023/06/06 04:56:34;;;;;;;4.03;3.73;;;16.90;99.90;;;;;;5118891;28;20731;-48
2023/06/06 04:59:06;;;;;;;5.60;4.37;;;17.00;99.90;;;;;;5117881;28;20434;-49
2023/06/06 05:01:36;;;;;;;4.50;4.10;;;17.00;99.90;;;;;;5116975;28;20910;-48
2023/06/06 05:04:05;;;;;;;4.67;4.27;;;17.00;99.90;;;;;;5116069;28;20827;-47
2023/06/06 05:06:31;;;;;;;5.03;4.27;;;17.10;99.90;;;;;;5115783;28;20516;-47
2023/06/06 05:09:07;;;;;;;4.57;3.73;;;17.20;99.90;;;;;;5116488;28;20525;-52
2023/06/06 05:11:36;;;;;;;4.80;4.40;;;17.30;99.90;;;;;;5115707;28;20464;-48
2023/06/06 05:14:02;;;;;;;4.23;3.83;;;17.40;99.90;;;;;;5117356;28;20467;-50
2023/06/06 05:16:28;;;;;;;4.00;3.70;;;17.50;99.90;;;;;;5116132;28;20457;-48
2023/06/06 05:18:54;;;;;;;4.70;4.30;;;17.60;99.90;;;;;;5116148;28;20457;-48
2023/06/06 05:21:20;;;;;;;5.13;3.90;;;17.70;99.90;;;;;;5114859;28;20210;-49
2023/06/06 05:23:46;;;;;;;4.20;3.70;;;17.70;99.90;;;;;;5115228;28;20430;-45
2023/06/06 05:26:12;;;;;;;4.20;3.80;;;17.70;99.90;;;;;;5116043;28;20410;-49
2023/06/06 05:28:38;;;;;;;6.00;4.97;;;17.70;99.90;;;;;;5117427;28;20190;-47
2023/06/06 05:31:07;;;;;;;6.50;4.50;;;17.70;60.40;;;;;;5114948;28;20839;-47
2023/06/06 05:33:33;;;;;;;8.07;5.23;;;17.60;99.90;;;;;;5116204;28;20699;-46
2023/06/06 05:36:00;;;;;;;5.23;4.60;;;17.60;99.90;;;;;;5116151;28;20681;-49
2023/06/06 05:38:26;;;;;;;6.50;4.20;;;17.60;99.90;;;;;;5116197;28;20505;-51
2023/06/06 05:40:51;;;;;;;4.63;4.23;;;17.70;99.90;;;;;;5115844;28;20842;-48
2023/06/06 05:43:17;;;;;;;5.60;4.40;;;17.80;79.60;;;;;;5113937;28;20219;-48
2023/06/06 05:45:43;;;;;;;4.63;4.23;;;17.80;96.10;;;;;;5114590;28;20262;-47
2023/06/06 05:48:08;;;;;;;5.00;4.50;;;17.90;91.30;;;;;;5114809;28;20273;-46
2023/06/06 05:50:34;;;;;;;5.17;4.70;;;18.00;58.70;;;;;;5114233;28;20310;-49
2023/06/06 05:53:01;;;;;;;5.40;5.00;;;18.10;23.10;;;;;;5113929;28;20189;-49
2023/06/06 05:55:31;;;;;;;6.97;4.23;;;18.10;26.70;;;;;;5113167;28;20592;-46
2023/06/06 05:57:58;;;;;;;5.37;4.87;;;18.10;43.10;;;;;;5115017;28;20417;-48
2023/06/06 06:00:29;;;;;;;4.50;4.10;;;18.10;13.30;;;;;;5114936;28;20807;-48
2023/06/06 06:02:56;;;;;;;5.33;4.83;;;18.20;28.50;;;;;;5114493;28;20425;-49
2023/06/06 06:05:29;;;;;;;5.33;4.60;;;18.30;21.40;;;;;;5112667;28;20405;-49
2023/06/06 06:08:06;;;;;;;5.60;5.10;;;18.40;1.00;;;;;;5113339;28;20689;-47
2023/06/06 06:10:33;;;;;;;5.47;4.97;;;18.40;1.00;;;;;;5113504;28;20560;-48
2023/06/06 06:12:59;;;;;;;5.63;5.10;;;18.30;1.00;;;;;;5115033;28;20429;-47
2023/06/06 06:15:25;;;;;;;5.77;5.27;;;18.30;1.00;;;;;;5115384;28;20445;-47
2023/06/06 06:17:50;;;;;;;5.83;5.33;;;18.30;1.00;;;;;;5114640;28;20450;-50
2023/06/06 06:20:17;;;;;;;5.23;4.73;;;18.40;1.00;;;;;;5113900;28;20812;-48
2023/06/06 06:22:43;;;;;;;5.73;5.17;;;18.50;3.40;;;;;;5113887;28;20252;-48
2023/06/06 06:25:13;;;;;;;4.93;4.37;;;18.60;1.00;;;;;;5113217;28;20422;-47
2023/06/06 06:27:42;;;;;;;6.20;4.80;;;18.70;1.00;;;;;;5096177;28;20430;-47
2023/06/06 06:30:09;;;;;;;5.33;4.80;;;18.80;1.00;;;;;;5114802;28;20992;-52
2023/06/06 06:32:37;;;;;;;6.80;5.17;;;18.90;1.00;;;;;;5097177;28;20413;-48
2023/06/06 06:35:03;;;;;;;4.50;4.10;;;19.10;1.00;;;;;;5116347;28;20822;-45
2023/06/06 06:37:32;;;;;;;5.17;4.63;;;19.10;1.00;;;;;;5115716;28;20460;-49
2023/06/06 06:40:00;;;;;;;5.10;4.70;;;19.30;1.00;;;;;;5114882;28;20835;-48
2023/06/06 06:42:26;;;;;;;4.90;4.47;;;19.40;1.00;;;;;;5114915;28;20465;-47
2023/06/06 06:44:52;;;;;;;4.70;4.30;;;19.40;1.00;;;;;;5113558;28;20832;-48
2023/06/06 06:47:18;;;;;;;6.20;4.13;;;19.40;1.00;;;;;;5113629;28;20409;-47
2023/06/06 06:49:44;;;;;;;5.10;4.70;;;19.50;1.00;;;;;;5113110;28;20484;-49
2023/06/06 06:52:15;;;;;;;5.33;4.93;;;19.50;1.00;;;;;;5114658;28;20636;-46
2023/06/06 06:54:46;;;;;;;6.40;4.63;;;19.50;1.00;;;;;;5113897;28;20364;-46
2023/06/06 06:57:12;;;;;;;5.50;5.00;;;19.50;1.00;;;;;;5113764;28;20581;-47
2023/06/06 06:59:38;;;;;;;4.53;4.13;;;19.60;1.00;;;;;;5112663;28;20406;-47
2023/06/06 07:02:05;;;;;;;4.47;4.07;;;19.70;1.00;;;;;;5112256;28;20417;-47
2023/06/06 07:04:30;;;;;;;5.00;4.60;;;19.90;1.00;;;;;;5111792;28;20554;-46
2023/06/06 07:06:56;;;;;;;5.47;5.00;;;19.90;1.00;;;;;;5112668;28;20425;-48
2023/06/06 07:09:22;;;;;;;5.20;4.70;;;20.10;1.00;;;;;;5116306;28;20234;-48
2023/06/06 07:11:48;;;;;;;4.60;4.27;;;20.30;1.00;;;;;;5115648;28;20183;-47
2023/06/06 07:14:13;;;;;;;7.00;4.40;;;20.60;1.00;;;;;;5115327;28;20408;-46
2023/06/06 07:16:39;;;;;;;4.30;3.90;;;20.70;1.00;;;;;;5115435;28;20188;-50
2023/06/06 07:19:05;;;;;;;4.53;4.13;;;21.00;1.00;;;;;;5114529;28;20196;-46
2023/06/06 07:21:30;;;;;;;8.87;5.30;;;21.10;1.00;;;;;;5115619;28;20191;-49
2023/06/06 07:23:56;;;;;;;5.23;4.73;;;21.40;1.00;;;;;;5117653;28;20271;-47
2023/06/06 07:26:22;;;;;;;5.23;4.67;;;21.50;1.00;;;;;;5116300;28;20274;-50
2023/06/06 07:28:47;;;;;;;6.40;4.60;;;21.60;1.00;;;;;;5117453;28;20184;-49
2023/06/06 07:31:14;;;;;;;4.47;3.77;;;21.60;1.00;;;;;;5115764;28;20223;-47
2023/06/06 07:33:40;;;;;;;5.47;4.97;;;21.50;1.00;;;;;;5115954;28;20215;-46
2023/06/06 07:36:07;;;;;;;4.50;4.07;;;21.50;1.00;;;;;;5116562;28;20429;-47
2023/06/06 07:38:33;;;;;;;5.07;4.57;;;21.50;1.00;;;;;;5116801;28;20413;-48
2023/06/06 07:40:58;;;;;;;4.57;4.17;;;21.70;1.00;;;;;;5116463;28;20838;-47
2023/06/06 07:43:24;;;;;;;6.47;4.37;;;21.90;1.00;;;;;;5116180;28;20902;-47
2023/06/06 07:45:50;;;;;;;4.70;4.23;;;22.20;1.00;;;;;;5117144;28;20466;-48
2023/06/06 07:48:16;;;;;;;4.90;4.40;;;22.30;1.00;;;;;;5117288;28;20194;-45
2023/06/06 07:50:42;;;;;;;4.67;4.20;;;22.40;1.00;;;;;;5096561;28;20571;-49
2023/06/06 07:53:08;;;;;;;5.87;4.20;;;22.50;1.00;;;;;;5116040;28;20224;-49
2023/06/06 07:55:35;;;;;;;8.70;4.23;;;22.70;1.00;;;;;;5117732;28;20192;-47
2023/06/06 07:58:01;;;;;;;4.90;4.30;;;23.00;1.00;;;;;;5117479;28;20938;-47
2023/06/06 08:00:27;;;;;;;5.10;4.60;;;23.30;1.00;;;;;;5115852;28;20523;-46
2023/06/06 08:02:53;;;;;;;4.60;4.20;;;23.40;1.00;;;;;;5114693;28;20468;-46
2023/06/06 08:05:18;;;;;;;4.80;4.30;;;23.50;1.00;;;;;;5113704;28;20890;-49
2023/06/06 08:07:44;;;;;;;5.40;4.33;;;23.40;1.00;;;;;;5117468;28;20218;-47
2023/06/06 08:10:11;;;;;;;4.40;4.00;;;23.40;1.00;;;;;;5116118;28;20215;-46
2023/06/06 08:12:37;;;;;;;5.80;4.30;;;23.50;1.00;;;;;;5117277;28;20433;-48
2023/06/06 08:15:03;;;;;;;6.33;4.20;;;23.50;1.00;;;;;;5116406;28;20426;-47
2023/06/06 08:17:30;;;;;;;4.97;4.57;;;23.50;1.00;;;;;;5116643;28;20417;-48
2023/06/06 08:19:56;;;;;;;5.60;5.03;;;23.30;1.00;;;;;;5113425;28;20406;-49
2023/06/06 08:22:22;;;;;;;5.27;4.77;;;23.20;1.00;;;;;;5113528;28;20720;-48
2023/06/06 08:24:47;;;;;;;5.60;3.93;;;23.20;1.00;;;;;;5113828;28;20212;-48
2023/06/06 08:27:13;;;;;;;5.10;4.67;;;23.20;1.00;;;;;;5114462;28;20436;-48
2023/06/06 08:29:39;;;;;;;7.50;4.90;;;23.20;1.00;;;;;;5115132;28;20208;-47
2023/06/06 08:32:08;;;;;;;5.30;4.40;;;23.10;1.00;;;;;;5115703;28;20188;-50
2023/06/06 08:34:34;;;;;;;4.80;4.40;;;22.90;1.00;;;;;;5097625;28;20441;-50
2023/06/06 08:36:59;;;;;;;5.70;5.13;;;23.10;1.00;;;;;;5118682;28;20421;-48
2023/06/06 08:39:25;;;;;;;5.97;4.57;;;23.50;1.00;;;;;;5118533;28;20421;-47
2023/06/06 08:41:53;;;;;;;4.60;4.20;;;23.80;1.00;;;;;;5117154;28;20362;-46
2023/06/06 08:44:21;;;;;;;4.73;4.30;;;24.10;1.00;;;;;;5116937;28;20184;-47
2023/06/06 08:46:49;;;;;;;7.20;5.10;;;24.40;1.00;;;;;;5116171;28;20742;-47
2023/06/06 08:49:18;;;;;;;5.63;4.77;;;24.60;1.00;;;;;;5098717;28;20834;-49
2023/06/06 08:51:48;;;;;;;4.80;4.40;;;24.60;1.00;;;;;;5116974;28;20477;-47
2023/06/06 08:54:14;;;;;;;5.73;5.23;;;24.60;1.00;;;;;;5116301;28;20422;-44
2023/06/06 08:56:44;;;;;;;6.73;4.80;;;24.70;1.00;;;;;;5081754;28;20418;-46
2023/06/06 08:59:10;;;;;;;5.90;5.33;;;24.50;1.00;;;;;;5117151;28;20575;-48
2023/06/06 09:01:37;;;;;;;4.90;4.40;;;24.60;1.00;;;;;;5117024;28;20430;-48
2023/06/06 09:04:03;;;;;;;4.67;4.27;;;24.40;1.00;;;;;;5117236;28;20831;-47
2023/06/06 09:06:29;;;;;;;5.30;4.80;;;24.30;1.00;;;;;;5098105;28;20516;-46
2023/06/06 09:08:55;;;;;;;5.20;4.70;;;24.50;1.00;;;;;;5098335;28;20988;-46
2023/06/06 09:11:22;;;;;;;4.97;4.40;;;24.60;1.00;;;;;;5116925;28;20460;-46
2023/06/06 09:13:48;;;;;;;5.50;4.97;;;24.60;1.00;;;;;;5098160;28;20429;-46
2023/06/06 09:16:14;;;;;;;5.17;4.67;;;24.70;1.00;;;;;;5116892;28;20764;-46
2023/06/06 09:18:41;;;;;;;5.83;5.00;;;24.90;1.00;;;;;;5117335;28;20279;-48
2023/06/06 09:21:07;;;;;;;5.40;4.90;;;25.50;1.00;;;;;;5097492;28;20502;-45
2023/06/06 09:23:33;;;;;;;5.10;4.60;;;26.10;1.00;;;;;;5115256;28;20420;-46
2023/06/06 09:25:59;;;;;;;4.53;4.20;;;26.70;1.00;;;;;;5097898;28;20874;-46
2023/06/06 09:28:39;;;;;;;5.00;4.50;;;27.20;1.00;;;;;;5116130;28;20460;-48
2023/06/06 09:31:32;;;;;;;5.90;5.30;;;27.40;1.00;;;;;;5095294;28;20480;-47
2023/06/06 09:33:58;;;;;;;5.17;4.73;;;27.00;1.00;;;;;;5114017;28;20798;-46
2023/06/06 09:36:27;;;;;;;5.37;4.87;;;26.70;1.00;;;;;;5112807;28;20457;-44
2023/06/06 09:38:53;;;;;;;5.17;4.77;;;26.40;1.00;;;;;;5094818;28;20928;-46
2023/06/06 09:41:20;;;;;;;7.17;6.27;;;26.60;1.00;;;;;;5127912;27;20468;-47
2023/06/06 09:43:45;;;;;;;5.73;5.23;;;26.70;1.00;;;;;;5118007;27;20591;-47
2023/06/06 09:46:15;;;;;;;6.77;5.20;;;26.70;1.00;;;;;;5114554;28;20525;-50
2023/06/06 09:48:41;;;;;;;6.20;5.20;;;26.80;1.00;;;;;;5114665;28;20211;-49
2023/06/06 09:51:11;;;;;;;5.27;4.87;;;27.00;1.00;;;;;;5112546;28;20878;-48
2023/06/06 09:53:37;;;;;;;6.80;5.07;;;27.40;1.00;;;;;;5115444;28;20182;-48
2023/06/06 09:56:06;;;;;;;5.30;4.90;;;27.90;1.00;;;;;;5115590;28;20410;-51
2023/06/06 09:58:33;;;;;;;6.00;4.73;;;28.30;1.00;;;;;;5079030;28;20565;-48
2023/06/06 10:00:59;;;;;;;5.87;5.27;;;28.50;1.00;;;;;;5095632;28;20498;-46
2023/06/06 10:03:26;;;;;;;5.47;4.97;;;28.80;1.00;;;;;;5096165;28;20426;-48
2023/06/06 10:05:52;;;;;;;5.93;5.13;;;29.20;1.00;;;;;;5114175;28;20430;-47
2023/06/06 10:08:19;;;;;;;5.47;4.63;;;29.60;1.00;;;;;;5079554;28;20413;-46
2023/06/06 10:10:46;;;;;;;6.10;4.97;;;29.70;1.00;;;;;;5096453;28;20862;-47
2023/06/06 10:13:20;;;;;;;5.70;5.20;;;29.50;1.00;;;;;;5095804;28;20500;-49
2023/06/06 10:15:46;;;;;;;5.90;5.40;;;29.40;1.00;;;;;;5094832;28;20436;-48
2023/06/06 10:18:13;;;;;;;5.93;5.00;;;29.50;1.00;;;;;;5098378;28;20738;-49
2023/06/06 10:20:39;;;;;;;5.73;5.33;;;29.60;1.00;;;;;;5133452;27;20674;-49
2023/06/06 10:23:05;;;;;;;6.10;5.20;;;29.80;1.00;;;;;;5087798;28;20822;-46
2023/06/06 10:25:31;;;;;;;5.47;5.07;;;29.80;1.00;;;;;;5108028;28;20436;-47
2023/06/06 10:28:15;;;;;;;5.63;5.07;;;30.10;1.00;;;;;;5113508;28;20607;-47
2023/06/06 10:30:43;;;;;;;6.13;4.60;;;30.60;1.00;;;;;;5095962;28;20790;-46
2023/06/06 10:33:17;;;;;;;5.50;4.97;;;31.00;1.00;;;;;;5114526;28;20426;-49
2023/06/06 10:35:44;;;;;;;4.90;4.50;;;31.10;1.00;;;;;;5095890;28;20429;-48
2023/06/06 10:38:10;;;;;;;6.20;5.60;;;31.40;1.00;;;;;;5112479;28;20409;-48
2023/06/06 10:41:00;;;;;;;6.77;4.97;;;31.70;1.00;;;;;;5111146;28;20773;-49
2023/06/06 10:43:34;;;;;;;5.80;5.40;;;31.70;1.00;;;;;;5111339;28;20609;-46
2023/06/06 10:46:01;;;;;;;6.30;5.70;;;31.90;1.00;;;;;;5113613;28;20493;-47
2023/06/06 10:48:39;;;;;;;6.03;5.53;;;32.10;1.00;;;;;;5112710;28;20403;-46
2023/06/06 10:51:06;;;;;;;6.33;5.80;;;32.00;1.00;;;;;;5112428;28;20873;-47
2023/06/06 10:53:32;;;;;;;5.20;4.80;;;31.90;1.00;;;;;;5113153;28;20475;-47
2023/06/06 10:55:58;;;;;;;5.57;5.07;;;32.10;1.00;;;;;;5115556;28;20411;-47
2023/06/06 10:58:28;;;;;;;9.83;5.27;;;32.10;1.00;;;;;;5116812;28;20190;-47
2023/06/06 11:00:58;;;;;;;5.47;5.03;;;32.40;1.00;;;;;;5115591;28;20185;-47
2023/06/06 11:03:40;;;;;;;5.60;4.80;;;32.50;1.00;;;;;;5113030;28;20408;-48
2023/06/06 11:06:11;;;;;;;5.50;5.10;;;32.30;1.00;;;;;;5114675;28;20400;-48
2023/06/06 11:08:47;;;;;;;5.60;4.97;;;31.60;1.00;;;;;;5113126;28;20476;-48
2023/06/06 11:11:15;;;;;;;5.47;5.00;;;30.80;1.00;;;;;;5088598;28;20611;-48
2023/06/06 11:13:53;;;;;;;5.60;5.10;;;30.50;1.00;;;;;;5114311;28;20443;-47
2023/06/06 11:16:46;;;;;;;5.30;4.90;;;30.40;1.00;;;;;;5107891;28;20429;-47
2023/06/06 11:19:19;;;;;;;5.13;4.70;;;30.90;1.00;;;;;;5134563;28;20429;-47
2023/06/06 11:21:49;;;;;;;6.30;5.80;;;31.40;1.00;;;;;;5133969;28;20438;-50
2023/06/06 11:24:16;;;;;;;6.00;5.50;;;31.90;1.00;;;;;;5132537;28;20430;-48
2023/06/06 11:26:43;;;;;;;6.20;5.60;;;31.90;1.00;;;;;;5133767;28;20415;-49
2023/06/06 11:29:09;;;;;;;6.33;5.50;;;32.10;1.00;;;;;;5131588;28;20408;-49
2023/06/06 11:31:36;;;;;;;5.53;5.07;;;31.90;1.00;;;;;;5130751;28;20605;-46
2023/06/06 11:34:10;;;;;;;6.30;5.20;;;31.60;1.00;;;;;;5130039;28;20434;-47
2023/06/06 11:36:38;;;;;;;5.50;5.10;;;30.90;1.00;;;;;;5132209;28;20739;-48
2023/06/06 11:39:10;;;;;;;10.03;6.07;;;30.50;1.00;;;;;;5131851;28;20421;-46
2023/06/06 11:41:44;;;;;;;5.90;5.40;;;30.20;1.00;;;;;;5132488;28;20479;-47
2023/06/06 11:44:10;;;;;;;5.03;4.63;;;29.80;1.00;;;;;;5119607;28;20927;-51
2023/06/06 11:46:49;;;;;;;5.60;5.10;;;29.40;1.00;;;;;;5095327;28;20404;-47
2023/06/06 11:49:16;;;;;;;5.63;5.13;;;29.20;1.00;;;;;;5133482;28;20983;-47
2023/06/06 11:51:43;;;;;;;5.57;5.07;;;29.40;1.00;;;;;;5131864;28;20472;-49
2023/06/06 11:54:17;;;;;;;6.50;6.00;;;30.00;1.00;;;;;;5134098;27;20511;-47
2023/06/06 11:56:43;;;;;;;5.93;5.47;;;30.70;1.00;;;;;;5137848;27;20416;-50
2023/06/06 11:59:11;;;;;;;5.70;5.20;;;31.20;1.00;;;;;;5136760;27;20493;-47
2023/06/06 12:01:54;;;;;;;5.57;5.07;;;31.70;1.00;;;;;;5137998;27;20666;-51
2023/06/06 12:04:24;;;;;;;5.33;4.93;;;31.70;1.00;;;;;;5139947;27;20455;-46
2023/06/06 12:06:51;;;;;;;6.23;5.70;;;31.40;1.00;;;;;;5138439;27;20714;-47
2023/06/06 12:09:19;;;;;;;5.50;5.00;;;31.50;1.00;;;;;;5118819;27;20502;-50
2023/06/06 12:11:55;;;;;;;6.50;5.43;;;31.90;1.00;;;;;;5116297;27;20913;-48
2023/06/06 12:14:25;;;;;;;5.80;5.30;;;32.40;1.00;;;;;;5118690;28;20805;-49
2023/06/06 12:16:51;;;;;;;5.63;5.20;;;32.70;1.00;;;;;;5118435;27;20424;-48
2023/06/06 12:19:18;;;;;;;5.77;5.10;;;32.80;1.00;;;;;;5119066;27;20741;-47
2023/06/06 12:21:52;;;;;;;5.70;5.30;;;33.30;1.00;;;;;;5126490;27;20839;-49
2023/06/06 12:24:27;;;;;;;4.83;4.43;;;33.60;1.00;;;;;;5116169;27;20435;-48
2023/06/06 12:27:01;;;;;;;5.10;4.70;;;33.80;1.00;;;;;;5134967;27;20547;-50
2023/06/06 12:29:31;;;;;;;4.90;4.50;;;34.30;1.00;;;;;;5123917;27;20396;-50
2023/06/06 12:32:12;;;;;;;5.03;4.63;;;34.50;1.00;;;;;;5109693;28;20475;-50
2023/06/06 12:34:48;;;;;;;5.77;5.27;;;34.40;1.00;;;;;;5114995;28;20434;-50
2023/06/06 12:37:14;;;;;;;5.43;4.93;;;34.40;1.00;;;;;;5100130;28;20403;-47
2023/06/06 12:39:40;;;;;;;5.23;4.60;;;34.30;1.00;;;;;;5118684;27;20441;-47
2023/06/06 12:42:18;;;;;;;5.40;5.00;;;34.50;1.00;;;;;;5117282;28;20532;-48
2023/06/06 12:44:44;;;;;;;4.87;4.43;;;34.80;1.00;;;;;;5128699;27;20854;-48
2023/06/06 12:47:14;;;;;;;5.37;4.87;;;34.60;1.00;;;;;;5136832;27;20711;-48
2023/06/06 12:49:40;;;;;;;5.50;5.10;;;34.60;1.00;;;;;;5135830;27;20391;-48
2023/06/06 12:52:06;;;;;;;5.30;4.90;;;34.50;1.00;;;;;;5117499;27;20467;-48
2023/06/06 12:54:40;;;;;;;5.10;4.70;;;34.10;1.00;;;;;;5127231;27;20437;-49
2023/06/06 12:57:07;;;;;;;5.30;4.80;;;34.10;1.00;;;;;;5115017;28;20400;-48
2023/06/06 12:59:33;;;;;;;6.27;5.23;;;33.90;1.00;;;;;;5113877;28;20473;-46